Time;durP1;ratioP1;P1;durP2;ratioP2;P2;SDS_P1;SDS_P2;PMS_P1;PMS_P2;Temp;Humidity;BMP_temperature;BMP_pressure;BME280_temperature;BME280_humidity;BME280_pressure;Samples;Min_cycle;Max_cycle;Signal;HPM_P1;HPM_P2
2022/08/23 00:01:24;;;;;;;13.65;9.45;;;15.20;12.50;;;;;;5057602;28;20045;-79
2022/08/23 00:03:52;;;;;;;14.23;9.98;;;15.30;16.30;;;;;;5053559;28;20021;-79
2022/08/23 00:06:18;;;;;;;15.90;9.60;;;15.20;13.70;;;;;;5057438;28;20135;-79
2022/08/23 00:08:47;;;;;;;14.15;9.15;;;15.30;8.30;;;;;;5057672;28;20086;-79
2022/08/23 00:11:32;;;;;;;15.27;8.95;;;15.20;11.60;;;;;;5055860;28;20082;-79
2022/08/23 00:14:01;;;;;;;14.85;9.40;;;15.20;6.80;;;;;;5053521;28;20037;-79
2022/08/23 00:16:27;;;;;;;12.93;8.85;;;15.30;27.60;;;;;;5057262;28;20035;-79
2022/08/23 00:18:53;;;;;;;12.40;9.52;;;15.20;10.90;;;;;;5057298;28;20028;-79
2022/08/23 00:21:21;;;;;;;15.70;9.50;;;15.10;11.60;;;;;;5057107;28;20089;-79
2022/08/23 00:23:47;;;;;;;15.68;9.60;;;15.10;22.90;;;;;;5057262;28;20017;-79
2022/08/23 00:26:12;;;;;;;12.35;9.23;;;15.10;29.60;;;;;;5057074;28;20013;-80
2022/08/23 00:28:39;;;;;;;14.27;9.35;;;15.10;23.50;;;;;;5057264;28;20017;-79
2022/08/23 00:31:04;;;;;;;18.30;9.02;;;15.10;30.00;;;;;;5057038;28;20017;-80
2022/08/23 00:33:30;;;;;;;18.92;9.85;;;15.00;19.90;;;;;;5057101;28;20033;-79
2022/08/23 00:35:55;;;;;;;14.65;8.48;;;15.00;25.70;;;;;;5057258;28;20089;-79
2022/08/23 00:38:22;;;;;;;13.95;9.15;;;15.10;17.60;;;;;;5056518;28;20042;-79
2022/08/23 00:40:50;;;;;;;13.63;8.85;;;15.20;41.00;;;;;;5056765;28;20034;-79
2022/08/23 00:49:16;;;;;;;12.85;9.05;;;15.00;1.00;;;;;;5053269;28;20064;-79
2022/08/23 00:51:42;;;;;;;14.15;8.63;;;14.90;14.10;;;;;;5056823;28;20093;-79
2022/08/23 00:54:09;;;;;;;15.38;8.98;;;15.00;19.00;;;;;;5056959;28;20034;-79
2022/08/23 00:56:38;;;;;;;15.40;9.63;;;15.00;30.20;;;;;;5056675;28;20036;-79
2022/08/23 00:59:04;;;;;;;14.45;9.05;;;14.90;32.60;;;;;;5056800;28;20017;-79
2022/08/23 01:01:30;;;;;;;13.85;9.20;;;14.90;40.10;;;;;;5056453;28;20081;-79
2022/08/23 01:03:57;;;;;;;16.02;9.65;;;14.90;42.30;;;;;;5056771;28;20040;-79
2022/08/23 01:06:32;;;;;;;13.80;8.90;;;14.80;44.80;;;;;;5056260;28;20017;-79
2022/08/23 01:09:06;;;;;;;14.45;8.98;;;14.80;61.70;;;;;;5049735;28;20017;-79
2022/08/23 01:11:40;;;;;;;16.17;9.77;;;14.80;62.90;;;;;;5056539;28;20021;-79
2022/08/23 01:14:59;;;;;;;17.13;10.43;;;14.90;94.80;;;;;;5055599;28;20059;-79
2022/08/23 01:17:32;;;;;;;15.05;9.55;;;15.00;96.90;;;;;;5049659;28;20022;-78
2022/08/23 01:20:07;;;;;;;13.63;9.45;;;15.00;92.50;;;;;;5052688;28;20046;-79
2022/08/23 01:22:48;;;;;;;13.02;9.48;;;15.00;94.00;;;;;;5056214;28;20021;-79
2022/08/23 01:25:20;;;;;;;16.88;9.60;;;14.90;83.40;;;;;;5056698;28;20030;-79
2022/08/23 01:27:46;;;;;;;16.42;9.60;;;15.00;99.90;;;;;;5051538;28;20064;-79
2022/08/23 01:30:13;;;;;;;14.88;9.07;;;15.10;99.90;;;;;;5056348;28;20013;-79
2022/08/23 01:32:46;;;;;;;17.05;10.10;;;15.00;95.40;;;;;;5056428;28;20013;-79
2022/08/23 01:35:13;;;;;;;13.82;9.57;;;15.10;99.90;;;;;;5056191;28;20036;-79
2022/08/23 01:37:39;;;;;;;18.80;10.63;;;15.20;99.90;;;;;;5056021;28;20077;-79
2022/08/23 01:40:05;;;;;;;17.67;9.18;;;15.20;99.90;;;;;;5047142;28;20045;-79
2022/08/23 01:42:31;;;;;;;18.75;10.02;;;15.00;93.20;;;;;;5040597;28;20014;-79
2022/08/23 01:44:57;;;;;;;18.02;10.55;;;15.10;99.90;;;;;;5056230;28;20032;-79
2022/08/23 01:47:23;;;;;;;17.63;8.70;;;15.10;99.90;;;;;;5056244;28;20034;-78
2022/08/23 01:49:48;;;;;;;19.25;9.63;;;15.00;97.30;;;;;;5056088;28;20041;-79
2022/08/23 01:52:14;;;;;;;17.83;9.77;;;15.00;99.90;;;;;;5056469;28;20053;-79
2022/08/23 01:54:40;;;;;;;15.38;9.20;;;15.00;99.90;;;;;;5039091;28;20018;-79
2022/08/23 01:57:06;;;;;;;18.90;9.80;;;15.10;99.90;;;;;;5056120;28;20044;-78
2022/08/23 01:59:32;;;;;;;16.95;10.07;;;15.00;99.90;;;;;;5056041;28;20196;-79
2022/08/23 02:01:58;;;;;;;19.30;10.50;;;15.10;99.90;;;;;;5055934;28;20037;-79
2022/08/23 02:04:24;;;;;;;16.30;9.80;;;15.10;99.90;;;;;;5053323;28;20038;-79
2022/08/23 02:06:50;;;;;;;15.98;9.57;;;15.10;99.90;;;;;;5045715;28;20009;-79
2022/08/23 02:09:15;;;;;;;18.27;9.63;;;15.10;99.90;;;;;;5056146;28;20032;-79
2022/08/23 02:11:41;;;;;;;18.45;10.80;;;15.10;99.90;;;;;;5056112;28;20029;-79
2022/08/23 02:14:11;;;;;;;17.88;10.95;;;15.20;99.90;;;;;;5057141;28;20010;-79
2022/08/23 02:16:45;;;;;;;18.47;10.80;;;15.20;99.90;;;;;;5059822;28;20029;-79
2022/08/23 02:19:12;;;;;;;12.95;9.80;;;15.20;99.90;;;;;;5059095;28;20265;-79
2022/08/23 02:21:39;;;;;;;14.95;10.82;;;15.20;99.90;;;;;;5059652;28;20039;-78
2022/08/23 02:24:11;;;;;;;15.10;10.13;;;15.20;99.90;;;;;;5059463;28;20024;-79
2022/08/23 02:26:40;;;;;;;12.95;9.88;;;15.10;99.90;;;;;;5059543;28;20032;-79
2022/08/23 02:29:07;;;;;;;18.30;10.10;;;15.00;99.90;;;;;;5059418;28;20030;-79
2022/08/23 02:31:33;;;;;;;15.18;10.07;;;15.10;99.90;;;;;;5059582;28;20021;-78
2022/08/23 02:34:00;;;;;;;17.63;10.55;;;15.00;99.90;;;;;;5059413;28;20021;-79
2022/08/23 02:36:26;;;;;;;14.10;9.98;;;15.10;99.90;;;;;;5059422;28;20017;-79
2022/08/23 02:38:53;;;;;;;18.17;11.07;;;15.10;99.90;;;;;;5058981;28;20047;-79
2022/08/23 02:41:20;;;;;;;17.77;10.57;;;15.10;99.90;;;;;;5059169;28;20049;-79
2022/08/23 02:43:45;;;;;;;19.48;12.13;;;15.20;99.90;;;;;;5059088;28;20037;-79
2022/08/23 02:46:12;;;;;;;22.92;11.48;;;15.30;99.90;;;;;;5059235;28;20081;-79
2022/08/23 02:48:38;;;;;;;19.02;11.07;;;15.20;99.90;;;;;;5059214;28;20081;-78
2022/08/23 02:51:06;;;;;;;17.52;11.00;;;15.10;99.90;;;;;;5059158;28;20064;-78
2022/08/23 02:53:33;;;;;;;17.08;11.23;;;15.10;99.90;;;;;;5059042;28;20016;-79
2022/08/23 02:55:59;;;;;;;19.50;10.88;;;15.10;99.90;;;;;;5059172;28;20160;-79
2022/08/23 02:58:26;;;;;;;18.73;11.48;;;15.10;99.90;;;;;;5058910;28;20035;-79
2022/08/23 03:00:52;;;;;;;20.98;10.98;;;15.20;99.90;;;;;;5058823;28;20029;-79
2022/08/23 03:03:20;;;;;;;15.95;10.80;;;15.10;99.90;;;;;;5058997;28;20038;-79
2022/08/23 03:05:46;;;;;;;23.60;11.48;;;15.00;99.90;;;;;;5058960;28;20028;-79
2022/08/23 03:08:11;;;;;;;18.90;11.00;;;15.00;99.90;;;;;;5058676;28;20048;-79
2022/08/23 03:10:42;;;;;;;16.85;11.27;;;14.90;99.90;;;;;;5041900;28;20025;-79
2022/08/23 03:13:07;;;;;;;18.48;11.48;;;14.90;99.90;;;;;;5058599;28;20033;-79
2022/08/23 03:15:33;;;;;;;17.75;11.65;;;15.10;99.90;;;;;;5058657;28;20020;-79
2022/08/23 03:17:58;;;;;;;21.48;11.82;;;15.00;99.90;;;;;;5058781;28;20017;-79
2022/08/23 03:20:24;;;;;;;16.75;10.88;;;14.90;99.90;;;;;;5058533;28;20350;-79
2022/08/23 03:22:50;;;;;;;20.38;11.60;;;14.80;99.90;;;;;;5058761;28;20017;-79
2022/08/23 03:25:16;;;;;;;23.17;13.20;;;15.10;99.90;;;;;;5057306;28;20049;-78
2022/08/23 03:27:42;;;;;;;21.73;13.00;;;14.80;99.90;;;;;;5051528;28;20028;-79
2022/08/23 03:30:08;;;;;;;17.88;12.45;;;15.00;99.90;;;;;;5058209;28;20029;-78
2022/08/23 03:32:34;;;;;;;18.58;12.55;;;15.00;99.90;;;;;;5058253;28;20021;-79
2022/08/23 03:35:00;;;;;;;20.38;12.73;;;14.90;99.90;;;;;;5058307;28;20048;-79
2022/08/23 03:37:26;;;;;;;20.27;13.35;;;14.70;99.90;;;;;;5057886;28;20033;-79
2022/08/23 03:39:51;;;;;;;22.30;12.57;;;14.80;99.90;;;;;;5058173;28;20049;-79
2022/08/23 03:42:18;;;;;;;20.27;12.50;;;14.70;99.90;;;;;;5057763;28;20026;-79
2022/08/23 03:44:44;;;;;;;21.95;12.90;;;14.70;99.90;;;;;;5058003;28;20024;-78
2022/08/23 03:47:10;;;;;;;18.75;12.77;;;14.60;99.90;;;;;;5049801;28;20032;-79
2022/08/23 03:49:36;;;;;;;27.85;13.40;;;14.60;99.90;;;;;;5057992;28;20014;-79
2022/08/23 03:52:03;;;;;;;21.85;13.45;;;14.80;99.90;;;;;;5058173;28;20057;-79
2022/08/23 03:54:29;;;;;;;21.25;13.10;;;14.70;99.90;;;;;;5057826;28;20065;-79
2022/08/23 03:56:59;;;;;;;20.77;12.68;;;14.60;99.90;;;;;;5057935;28;20033;-79
2022/08/23 03:59:25;;;;;;;;;;;14.60;99.90;;;;;;5058302;28;20032;-79
2022/08/23 04:01:51;;;;;;;20.50;11.73;;;14.60;99.90;;;;;;5057894;28;19916;-78
2022/08/23 04:04:17;;;;;;;20.48;13.45;;;14.40;99.90;;;;;;5057505;28;20081;-78
2022/08/23 04:06:44;;;;;;;23.75;14.30;;;14.60;99.90;;;;;;5057680;28;20105;-79
2022/08/23 04:09:10;;;;;;;21.10;13.38;;;14.60;99.90;;;;;;5057483;28;20044;-79
2022/08/23 04:11:36;;;;;;;21.38;13.38;;;14.50;99.90;;;;;;5057438;28;20014;-79
2022/08/23 04:14:01;;;;;;;20.67;12.57;;;14.50;99.90;;;;;;5056113;28;20100;-79
2022/08/23 04:16:29;;;;;;;20.98;12.15;;;14.40;99.90;;;;;;5057312;28;20013;-79
2022/08/23 04:18:54;;;;;;;19.48;13.05;;;14.20;99.90;;;;;;5057502;28;20010;-78
2022/08/23 04:21:22;;;;;;;15.55;12.23;;;14.20;99.90;;;;;;5057237;28;20049;-79
2022/08/23 04:23:48;;;;;;;20.50;12.55;;;14.20;99.90;;;;;;5039906;28;20037;-79
2022/08/23 04:26:13;;;;;;;22.33;14.13;;;14.10;99.90;;;;;;5057210;28;20032;-79
2022/08/23 04:28:39;;;;;;;18.95;13.32;;;14.30;99.90;;;;;;5056897;28;20077;-79
2022/08/23 04:31:05;;;;;;;20.00;12.90;;;14.30;99.90;;;;;;5057316;28;20021;-79
2022/08/23 04:33:32;;;;;;;22.65;13.70;;;14.20;99.90;;;;;;5051127;28;20005;-79
2022/08/23 04:35:59;;;;;;;20.10;13.52;;;14.30;99.90;;;;;;5053271;28;20018;-79
2022/08/23 04:38:25;;;;;;;18.10;12.80;;;14.30;99.90;;;;;;5056212;28;20040;-78
2022/08/23 04:43:36;;;;;;;20.00;12.90;;;14.20;99.90;;;;;;5056951;28;20016;-79
2022/08/23 04:46:01;;;;;;;18.15;12.18;;;14.30;99.90;;;;;;5057263;28;20017;-79
2022/08/23 04:48:27;;;;;;;21.33;12.90;;;14.20;99.90;;;;;;5056799;28;20022;-79
2022/08/23 04:50:52;;;;;;;20.58;12.82;;;14.50;99.90;;;;;;5057264;28;20018;-78
2022/08/23 04:53:19;;;;;;;22.08;13.93;;;14.40;99.90;;;;;;5056833;28;20069;-79
2022/08/23 04:55:45;;;;;;;24.90;14.70;;;14.50;99.90;;;;;;5056928;28;20073;-79
2022/08/23 04:58:10;;;;;;;26.98;15.38;;;14.80;99.90;;;;;;5056932;28;20025;-79
2022/08/23 05:00:36;;;;;;;23.25;15.38;;;14.90;99.90;;;;;;5056854;28;20089;-78
2022/08/23 05:03:01;;;;;;;22.67;15.18;;;15.00;99.90;;;;;;5056641;28;20077;-79
2022/08/23 05:05:27;;;;;;;21.95;15.38;;;15.20;99.90;;;;;;5056755;28;20009;-78
2022/08/23 05:07:53;;;;;;;21.00;14.38;;;15.30;99.90;;;;;;5050241;28;20026;-79
2022/08/23 05:10:19;;;;;;;24.02;14.68;;;15.50;99.90;;;;;;5056535;28;20021;-78
2022/08/23 05:12:46;;;;;;;21.45;14.65;;;15.50;99.90;;;;;;5056015;28;20040;-79
2022/08/23 05:15:12;;;;;;;22.23;15.10;;;15.60;99.90;;;;;;5056567;28;20025;-79
2022/08/23 05:17:38;;;;;;;22.02;14.63;;;15.70;94.80;;;;;;5056367;28;20028;-79
2022/08/23 05:20:07;;;;;;;21.60;14.48;;;15.90;27.20;;;;;;5049160;28;20045;-79
2022/08/23 05:22:37;;;;;;;20.13;14.15;;;16.00;9.50;;;;;;5056065;28;21124;-79
2022/08/23 05:25:03;;;;;;;22.35;14.02;;;16.20;1.00;;;;;;5056108;28;20017;-79
2022/08/23 05:27:29;;;;;;;20.83;14.20;;;16.50;1.00;;;;;;5052524;28;20024;-78
2022/08/23 05:29:55;;;;;;;19.83;13.93;;;16.50;1.00;;;;;;5055380;28;20013;-79
2022/08/23 05:32:21;;;;;;;21.27;14.95;;;16.60;1.00;;;;;;5056403;28;20037;-79
2022/08/23 05:34:47;;;;;;;19.80;14.00;;;16.80;1.00;;;;;;5056198;28;20025;-79
2022/08/23 05:37:14;;;;;;;19.67;13.85;;;16.90;1.00;;;;;;5055672;28;20057;-78
2022/08/23 05:39:39;;;;;;;20.45;13.80;;;16.90;1.00;;;;;;5056585;28;20105;-79
2022/08/23 05:42:07;;;;;;;18.73;14.07;;;17.90;1.00;;;;;;5050620;28;20053;-79
2022/08/23 05:44:33;;;;;;;20.40;15.02;;;20.60;99.90;;;;;;5055912;28;20009;-79
2022/08/23 05:46:58;;;;;;;16.65;12.73;;;22.20;99.90;;;;;;5055751;28;20303;-79
2022/08/23 05:49:24;;;;;;;16.73;12.05;;;22.60;99.90;;;;;;5054460;28;20052;-79
2022/08/23 05:51:49;;;;;;;14.88;12.82;;;23.40;99.90;;;;;;5054349;28;20049;-79
2022/08/23 05:54:15;;;;;;;17.00;12.52;;;23.00;99.90;;;;;;5051265;28;20033;-79
2022/08/23 05:56:42;;;;;;;15.43;12.52;;;21.30;99.90;;;;;;5046367;28;20017;-79
2022/08/23 05:59:11;;;;;;;18.92;12.07;;;20.80;99.90;;;;;;5054460;28;20018;-79
2022/08/23 06:01:38;;;;;;;16.00;12.32;;;20.70;99.90;;;;;;5051866;28;20025;-79
2022/08/23 06:04:06;;;;;;;18.27;13.23;;;20.30;99.90;;;;;;5052192;28;20021;-79
2022/08/23 06:06:33;;;;;;;18.30;13.43;;;20.20;99.90;;;;;;5056341;28;20017;-79
2022/08/23 06:08:59;;;;;;;16.45;13.00;;;20.40;99.90;;;;;;5054440;28;20040;-79
2022/08/23 06:11:27;;;;;;;15.77;12.55;;;20.30;99.90;;;;;;5051470;28;20018;-79
2022/08/23 06:13:55;;;;;;;16.23;12.57;;;21.00;99.90;;;;;;5058805;28;20057;-79
2022/08/23 06:16:27;;;;;;;21.83;12.65;;;21.40;99.90;;;;;;5059652;28;20017;-79
2022/08/23 06:18:56;;;;;;;16.98;12.82;;;21.30;99.90;;;;;;5052574;28;20274;-79
2022/08/23 06:21:22;;;;;;;15.95;12.07;;;21.30;99.90;;;;;;5059700;28;20020;-79
2022/08/23 06:23:48;;;;;;;14.20;12.63;;;21.60;99.90;;;;;;5059636;28;20022;-79
2022/08/23 06:26:30;;;;;;;15.52;13.23;;;21.40;99.90;;;;;;5059681;28;20092;-78
2022/08/23 06:28:58;;;;;;;17.73;13.27;;;21.40;99.90;;;;;;5059616;28;20036;-79
2022/08/23 06:34:16;;;;;;;16.20;12.38;;;21.60;99.90;;;;;;5058772;28;20097;-80
2022/08/23 06:36:42;;;;;;;12.50;11.15;;;21.80;99.90;;;;;;5058966;28;20017;-80
2022/08/23 06:39:09;;;;;;;14.32;12.13;;;21.90;99.90;;;;;;5059146;28;20064;-78
2022/08/23 06:41:35;;;;;;;15.27;12.77;;;23.10;99.90;;;;;;5058880;28;20049;-79
2022/08/23 06:44:01;;;;;;;15.38;11.95;;;23.80;99.90;;;;;;5057325;28;20033;-79
2022/08/23 06:46:27;;;;;;;14.00;11.80;;;24.20;99.90;;;;;;5041875;28;20017;-79
2022/08/23 06:48:53;;;;;;;11.98;9.77;;;24.80;99.90;;;;;;5059381;28;20247;-79
2022/08/23 06:51:25;;;;;;;11.77;10.55;;;26.20;99.90;;;;;;5059166;28;20025;-79
2022/08/23 06:53:55;;;;;;;11.43;10.20;;;29.40;99.90;;;;;;5057042;28;20026;-79
2022/08/23 06:56:22;;;;;;;14.90;12.02;;;29.00;99.90;;;;;;5058291;28;20018;-80
2022/08/23 06:58:48;;;;;;;13.68;11.60;;;30.10;99.90;;;;;;5058659;28;20025;-79
2022/08/23 07:01:29;;;;;;;13.45;11.10;;;33.00;99.90;;;;;;5057142;28;20030;-79
2022/08/23 07:03:56;;;;;;;11.43;8.95;;;35.30;99.90;;;;;;5055530;28;20041;-79
2022/08/23 07:06:25;;;;;;;12.90;11.32;;;36.70;99.90;;;;;;5054797;28;20036;-79
2022/08/23 07:08:52;;;;;;;11.15;9.75;;;34.10;99.90;;;;;;5054743;28;20048;-79
2022/08/23 07:11:18;;;;;;;12.32;10.95;;;34.80;99.90;;;;;;5054294;28;20038;-80
2022/08/23 07:13:44;;;;;;;11.55;10.25;;;35.90;99.90;;;;;;5054684;28;20017;-80
2022/08/23 07:16:10;;;;;;;14.23;10.18;;;33.60;99.90;;;;;;5055881;28;20018;-81
2022/08/23 07:18:36;;;;;;;11.63;10.43;;;35.60;99.90;;;;;;5057919;28;20074;-81
2022/08/23 07:21:03;;;;;;;13.13;10.25;;;34.20;99.90;;;;;;5058434;28;20033;-81
2022/08/23 07:23:32;;;;;;;10.45;9.43;;;31.50;99.90;;;;;;5057291;28;20021;-81
2022/08/23 07:26:02;;;;;;;12.40;9.18;;;34.50;99.90;;;;;;5058265;28;20025;-80
2022/08/23 07:28:29;;;;;;;10.48;9.38;;;33.60;99.90;;;;;;5058412;28;20077;-79
2022/08/23 07:31:04;;;;;;;11.73;9.65;;;32.60;99.90;;;;;;5058063;28;20642;-79
2022/08/23 07:33:30;;;;;;;12.98;9.70;;;33.50;99.90;;;;;;5053800;28;20033;-79
2022/08/23 07:35:56;;;;;;;12.70;9.73;;;31.60;99.90;;;;;;5055310;28;20028;-79
2022/08/23 07:38:21;;;;;;;11.35;9.05;;;31.80;99.90;;;;;;5052512;28;20038;-79
2022/08/23 07:40:47;;;;;;;10.63;9.52;;;31.90;99.90;;;;;;5055294;28;20052;-79
2022/08/23 07:43:13;;;;;;;14.95;10.43;;;34.10;99.90;;;;;;5058131;28;20017;-79
2022/08/23 07:45:39;;;;;;;11.98;10.20;;;36.00;99.90;;;;;;5058142;28;20077;-79
2022/08/23 07:48:05;;;;;;;11.73;10.50;;;36.10;99.90;;;;;;5057595;28;20014;-79
2022/08/23 07:50:31;;;;;;;12.73;10.30;;;35.50;99.90;;;;;;5058048;28;20018;-79
2022/08/23 07:52:57;;;;;;;11.70;10.50;;;33.40;99.90;;;;;;5057703;28;20057;-80
2022/08/23 07:55:22;;;;;;;11.95;10.00;;;33.30;99.90;;;;;;5049541;28;20014;-79
2022/08/23 07:57:48;;;;;;;11.23;9.70;;;31.60;99.90;;;;;;5056887;28;20018;-79
2022/08/23 08:00:14;;;;;;;11.25;10.07;;;31.70;99.90;;;;;;5057778;28;20041;-80
2022/08/23 08:02:40;;;;;;;11.15;9.90;;;31.50;99.90;;;;;;5057280;28;20274;-79
2022/08/23 08:05:06;;;;;;;10.98;9.88;;;31.60;99.90;;;;;;5057463;28;20037;-81
2022/08/23 08:07:32;;;;;;;14.05;9.73;;;32.40;99.90;;;;;;5057434;28;20089;-81
2022/08/23 08:09:58;;;;;;;11.98;8.98;;;32.30;99.90;;;;;;5057583;28;20022;-80
2022/08/23 08:12:25;;;;;;;10.27;9.20;;;35.10;99.90;;;;;;5056861;28;20040;-79
2022/08/23 08:14:52;;;;;;;10.75;9.65;;;36.50;99.90;;;;;;5057474;28;20025;-79
2022/08/23 08:17:17;;;;;;;10.43;9.30;;;38.80;99.90;;;;;;5057498;28;20033;-79
2022/08/23 08:19:44;;;;;;;10.65;9.52;;;39.80;99.90;;;;;;5057402;28;20023;-79
2022/08/23 08:22:09;;;;;;;10.00;9.00;;;41.90;99.90;;;;;;5057318;28;20029;-79
2022/08/23 08:24:35;;;;;;;11.07;9.98;;;43.80;99.90;;;;;;5056870;28;20097;-79
2022/08/23 08:27:00;;;;;;;11.25;9.18;;;42.40;97.10;;;;;;5052597;28;20014;-79
2022/08/23 08:29:26;;;;;;;12.20;9.48;;;41.80;95.50;;;;;;5054673;28;20022;-79
2022/08/23 08:31:51;;;;;;;12.30;9.25;;;44.40;93.70;;;;;;5055284;28;20033;-79
2022/08/23 08:34:17;;;;;;;9.93;8.00;;;43.00;87.90;;;;;;5049438;28;20025;-79
2022/08/23 08:36:46;;;;;;;7.85;7.03;;;38.70;90.90;;;;;;5056213;28;20039;-79
2022/08/23 08:39:19;;;;;;;10.48;6.95;;;38.40;93.30;;;;;;5044156;28;20026;-79
2022/08/23 08:42:07;;;;;;;7.32;6.60;;;37.90;93.80;;;;;;5054960;28;20080;-79
2022/08/23 08:44:52;;;;;;;7.63;6.80;;;37.00;96.20;;;;;;5044219;28;20013;-79
2022/08/23 08:47:42;;;;;;;8.63;6.72;;;36.70;93.50;;;;;;5052005;28;20029;-79
2022/08/23 08:50:18;;;;;;;7.05;5.53;;;36.10;95.30;;;;;;5050874;28;20042;-79
2022/08/23 08:52:53;;;;;;;8.10;5.15;;;37.90;95.30;;;;;;5053359;28;20026;-79
2022/08/23 08:55:24;;;;;;;6.47;5.07;;;39.70;93.10;;;;;;5053520;28;20048;-78
2022/08/23 08:57:53;;;;;;;7.22;5.28;;;42.30;92.20;;;;;;5056050;28;20045;-79
2022/08/23 09:00:21;;;;;;;6.28;5.53;;;43.50;87.80;;;;;;5038881;28;20040;-79
2022/08/23 09:02:47;;;;;;;8.32;5.78;;;44.40;82.60;;;;;;5055984;28;20017;-79
2022/08/23 09:05:16;;;;;;;7.47;5.97;;;45.20;76.70;;;;;;5055896;28;20043;-79
2022/08/23 09:07:54;;;;;;;8.30;6.70;;;45.50;71.00;;;;;;5055894;28;20044;-79
2022/08/23 09:10:41;;;;;;;9.15;7.03;;;45.00;66.50;;;;;;5056068;28;20017;-80
2022/08/23 09:13:29;;;;;;;9.45;8.40;;;45.00;65.90;;;;;;5048968;28;20028;-79
2022/08/23 09:16:33;;;;;;;8.65;6.45;;;44.60;62.00;;;;;;5055326;28;20021;-79
2022/08/23 09:19:01;;;;;;;7.80;6.75;;;46.20;61.20;;;;;;5055772;28;20262;-79
2022/08/23 09:21:31;;;;;;;10.18;7.80;;;46.50;60.40;;;;;;5055796;28;20026;-79
2022/08/23 09:23:56;;;;;;;10.30;7.97;;;46.20;54.20;;;;;;5054280;28;20014;-79
2022/08/23 09:26:25;;;;;;;13.02;8.68;;;45.10;54.70;;;;;;5048822;28;20037;-78
2022/08/23 09:28:55;;;;;;;9.13;8.23;;;45.40;52.00;;;;;;5055185;28;20045;-79
2022/08/23 09:31:42;;;;;;;9.93;7.63;;;46.10;53.20;;;;;;5055696;28;20081;-80
2022/08/23 09:34:14;;;;;;;11.30;7.40;;;46.20;51.90;;;;;;5054707;28;20040;-80
2022/08/23 09:36:39;;;;;;;9.73;8.82;;;47.40;49.10;;;;;;5055487;28;20024;-79
2022/08/23 09:39:21;;;;;;;10.70;7.18;;;46.00;45.70;;;;;;5011878;28;1240528;-79
2022/08/23 09:41:47;;;;;;;10.48;8.00;;;46.30;46.60;;;;;;5050723;28;20037;-78
2022/08/23 09:44:35;;;;;;;11.82;9.88;;;46.30;45.50;;;;;;5056469;28;20097;-79
2022/08/23 09:47:08;;;;;;;10.82;9.55;;;46.70;43.80;;;;;;5056097;28;20040;-79
2022/08/23 09:49:34;;;;;;;11.25;8.20;;;47.00;45.30;;;;;;5056267;28;20013;-79
2022/08/23 09:52:19;;;;;;;11.32;8.20;;;44.60;42.00;;;;;;5055348;28;20026;-79
2022/08/23 09:54:57;;;;;;;9.88;7.88;;;44.30;44.80;;;;;;5055106;28;20017;-78
2022/08/23 09:57:26;;;;;;;13.37;10.47;;;44.90;43.50;;;;;;5054992;28;20048;-79
2022/08/23 09:59:55;;;;;;;11.93;8.13;;;44.90;40.90;;;;;;5054154;28;20251;-79
2022/08/23 10:02:31;;;;;;;11.00;8.98;;;43.80;44.40;;;;;;5051807;28;20026;-78
2022/08/23 10:05:03;;;;;;;12.60;8.80;;;44.10;43.30;;;;;;5052313;28;20097;-79
2022/08/23 10:07:37;;;;;;;9.95;8.93;;;43.30;43.30;;;;;;5055081;28;20040;-79
2022/08/23 10:10:33;;;;;;;13.30;9.30;;;43.30;44.50;;;;;;5053534;28;20026;-79
2022/08/23 10:12:59;;;;;;;12.55;10.23;;;43.50;44.30;;;;;;5052259;28;20024;-79
2022/08/23 10:15:52;;;;;;;12.15;9.95;;;44.00;43.30;;;;;;5055387;28;20037;-79
2022/08/23 10:18:49;;;;;;;10.65;9.05;;;45.50;42.00;;;;;;5043005;28;20060;-79
2022/08/23 10:21:15;;;;;;;10.48;9.38;;;45.90;45.20;;;;;;5054175;28;20028;-79
2022/08/23 10:24:19;;;;;;;15.43;10.88;;;46.30;40.90;;;;;;5052777;28;20025;-79
2022/08/23 10:29:36;;;;;;;12.20;8.73;;;43.70;42.00;;;;;;5053223;28;20175;-79
2022/08/23 10:30:03;;;;;;;12.40;9.35;;;43.30;41.80;;;;;;5050458;28;20018;-79
2022/08/23 10:32:40;;;;;;;8.98;8.07;;;44.00;39.90;;;;;;5052644;28;20017;-79
2022/08/23 10:35:24;;;;;;;10.02;7.72;;;44.50;40.00;;;;;;5054898;28;20040;-79
2022/08/23 10:37:50;;;;;;;12.93;8.60;;;43.40;38.70;;;;;;5059074;28;20053;-79
2022/08/23 10:40:31;;;;;;;11.45;7.68;;;42.70;38.80;;;;;;5058766;28;20025;-79
2022/08/23 10:43:08;;;;;;;11.15;9.35;;;41.90;39.50;;;;;;5053089;28;20009;-79
2022/08/23 10:45:38;;;;;;;13.35;10.18;;;40.30;40.40;;;;;;5058808;28;20018;-78
2022/08/23 10:48:13;;;;;;;13.57;10.50;;;39.60;42.80;;;;;;5053322;28;20051;-79
2022/08/23 10:50:47;;;;;;;14.07;9.25;;;40.00;45.60;;;;;;5057782;28;20022;-79
2022/08/23 10:53:16;;;;;;;13.48;8.93;;;40.90;43.50;;;;;;5059001;28;20013;-79
2022/08/23 10:56:01;;;;;;;17.38;12.00;;;42.50;44.30;;;;;;5056796;28;20033;-79
2022/08/23 10:58:32;;;;;;;13.02;9.68;;;42.50;41.50;;;;;;5055781;28;20093;-79
2022/08/23 11:00:59;;;;;;;11.50;8.82;;;41.30;42.30;;;;;;5055385;28;20032;-79
2022/08/23 11:03:42;;;;;;;12.85;8.65;;;40.20;43.30;;;;;;5053989;28;20006;-79
2022/08/23 11:06:32;;;;;;;12.23;9.23;;;40.70;44.30;;;;;;5052484;28;20029;-80
2022/08/23 11:09:08;;;;;;;15.63;12.45;;;39.30;45.50;;;;;;5055137;28;20018;-79
2022/08/23 11:11:42;;;;;;;12.05;9.57;;;35.70;45.80;;;;;;5056216;28;20081;-80
2022/08/23 11:14:25;;;;;;;15.05;10.05;;;35.50;50.80;;;;;;5058576;28;20045;-79
2022/08/23 11:17:04;;;;;;;11.88;9.90;;;35.80;51.60;;;;;;5055731;28;20033;-79
2022/08/23 11:20:02;;;;;;;15.13;9.88;;;35.40;53.20;;;;;;5057739;28;20026;-79
2022/08/23 11:22:31;;;;;;;16.27;11.20;;;35.40;53.90;;;;;;5057755;28;20021;-79
2022/08/23 11:25:05;;;;;;;12.10;10.38;;;34.60;55.00;;;;;;5055038;28;20048;-80
2022/08/23 11:27:39;;;;;;;11.90;9.75;;;34.60;56.20;;;;;;5055196;28;20045;-79
2022/08/23 11:30:35;;;;;;;13.95;9.70;;;34.30;57.20;;;;;;5055199;28;20041;-79
2022/08/23 11:33:14;;;;;;;11.77;8.30;;;34.20;58.10;;;;;;5052935;28;20017;-79
2022/08/23 11:35:48;;;;;;;13.43;9.15;;;34.40;58.90;;;;;;5058236;28;20077;-79
2022/08/23 11:38:15;;;;;;;12.05;9.52;;;34.40;60.50;;;;;;5056245;28;20097;-79
2022/08/23 11:41:11;;;;;;;14.95;11.23;;;34.30;60.60;;;;;;5058077;28;20033;-79
2022/08/23 11:43:39;;;;;;;12.85;8.65;;;32.80;58.20;;;;;;5054407;28;20009;-79
2022/08/23 11:46:13;;;;;;;11.43;9.40;;;33.70;62.40;;;;;;5057235;28;20025;-79
2022/08/23 11:48:41;;;;;;;13.70;9.93;;;33.10;60.90;;;;;;5057859;28;20021;-79
2022/08/23 11:51:39;;;;;;;15.88;8.30;;;33.70;61.70;;;;;;5055786;28;20018;-79
2022/08/23 11:54:25;;;;;;;11.05;9.90;;;33.70;62.10;;;;;;5057915;28;20021;-79
2022/08/23 11:57:14;;;;;;;15.20;9.77;;;32.50;60.50;;;;;;5057911;28;20037;-79
2022/08/23 11:59:43;;;;;;;;;;;33.20;64.00;;;;;;5012527;28;20029;-79
2022/08/23 12:02:30;;;;;;;12.30;9.38;;;33.60;64.30;;;;;;5057804;28;19924;-79
2022/08/23 12:04:59;;;;;;;8.93;7.65;;;33.60;63.70;;;;;;5056422;28;20039;-79
2022/08/23 12:07:59;;;;;;;12.05;8.27;;;34.10;63.20;;;;;;5057878;28;20037;-79
2022/08/23 12:10:40;;;;;;;10.40;9.07;;;33.10;64.00;;;;;;5014961;28;20128;-79
2022/08/23 12:13:24;;;;;;;12.18;7.80;;;33.50;64.00;;;;;;5057432;28;20031;-79
2022/08/23 12:16:10;;;;;;;10.35;6.38;;;33.70;64.70;;;;;;5053653;28;20029;-79
2022/08/23 12:18:43;;;;;;;10.43;7.13;;;33.70;66.60;;;;;;5052555;28;20019;-79
2022/08/23 12:21:16;;;;;;;11.73;8.25;;;33.50;66.00;;;;;;5057410;28;20113;-80
2022/08/23 12:23:46;;;;;;;13.20;8.25;;;33.10;66.30;;;;;;5057607;28;20017;-79
2022/08/23 12:26:21;;;;;;;8.73;6.47;;;33.20;66.30;;;;;;5057331;28;20038;-79
2022/08/23 12:28:52;;;;;;;12.27;7.25;;;33.30;68.20;;;;;;5057438;28;20025;-79
2022/08/23 12:31:32;;;;;;;8.55;5.80;;;33.30;68.00;;;;;;5057172;28;20067;-79
2022/08/23 12:34:14;;;;;;;8.70;5.15;;;33.00;68.60;;;;;;5056925;28;20238;-79
2022/08/23 12:37:11;;;;;;;9.23;6.25;;;33.10;66.70;;;;;;5057284;28;20032;-79
2022/08/23 12:39:45;;;;;;;9.95;5.07;;;33.10;64.80;;;;;;5011883;28;20022;-79
2022/08/23 12:42:14;;;;;;;8.05;5.70;;;33.20;65.60;;;;;;5017554;28;20033;-79
2022/08/23 12:44:45;;;;;;;12.35;4.53;;;32.90;64.00;;;;;;5017830;28;20036;-79
2022/08/23 12:47:17;;;;;;;9.15;5.53;;;33.10;65.40;;;;;;5017445;28;20052;-79
2022/08/23 12:49:59;;;;;;;10.80;6.25;;;33.60;66.70;;;;;;5016547;28;20082;-79
2022/08/23 12:52:28;;;;;;;12.43;5.72;;;32.50;66.30;;;;;;5009759;28;20045;-80
2022/08/23 12:54:56;;;;;;;;;;;32.60;66.60;;;;;;5017681;28;20033;-79
2022/08/23 12:57:35;;;;;;;7.33;4.60;;;32.90;65.50;;;;;;5017301;28;19901;-79
2022/08/23 13:00:21;;;;;;;11.67;6.60;;;33.10;69.30;;;;;;5014147;28;20340;-79
2022/08/23 13:02:54;;;;;;;8.18;6.03;;;33.10;67.40;;;;;;5017258;28;20264;-79
2022/08/23 13:05:32;;;;;;;9.93;5.50;;;32.80;68.00;;;;;;5017357;28;20079;-79